首页
METAR-TAF:

METAR-TAF

机场 :

Smith Field

Siloam Springs, 阿肯色州, 美国

纬度: 36-12N, 经度: 094-29W, 海拔: 300米

当前天气观测

该预报发布于1小时和5分钟前的19:56 UTC
风速3节,风向
温度 33°C
湿度 53%
气压 1015 hPa
能見度: 16.1公里
天空无云

METAR: KSLG 061956Z AUTO 08003KT 10SM CLR 33/22 A2997 RMK AO2 SLP135 T03280222 TSNO

时间: 16:01 (21:01 UTC)


TAF: 丢失

超过4000个机场的气象观测和天气预报(METAR&TAF报告)。

可查询的气象台以黄色和红色小点在地图上表示。

将鼠标移到小点上方,可查看气象台名称。

然后点击查看天气观测和预报。

如需切换地图:点击带黑十字的绿色按钮放大地图;点击带横线的绿色按钮缩小地图;或者点击绿色箭头查看邻近地区的地图。


METAR-TAF: